Time;durP1;ratioP1;P1;durP2;ratioP2;P2;SDS_P1;SDS_P2;PMS_P1;PMS_P2;Temp;Humidity;BMP_temperature;BMP_pressure;BME280_temperature;BME280_humidity;BME280_pressure;Samples;Min_cycle;Max_cycle;Signal;HPM_P1;HPM_P2
2022/03/21 00:02:23;;;;;;;55.13;39.97;;;6.10;99.90;;;;;;5127129;27;20035;-74
2022/03/21 00:04:51;;;;;;;60.17;40.83;;;6.10;99.90;;;;;;5133643;27;20054;-74
2022/03/21 00:07:18;;;;;;;59.97;42.13;;;6.00;99.90;;;;;;5134157;27;20223;-74
2022/03/21 00:09:45;;;;;;;56.60;40.10;;;6.00;99.90;;;;;;5142751;27;20088;-75
2022/03/21 00:12:13;;;;;;;57.10;40.20;;;6.00;99.90;;;;;;5142256;27;20088;-74
2022/03/21 00:14:41;;;;;;;55.07;38.27;;;6.00;99.90;;;;;;5129762;27;20100;-75
2022/03/21 00:17:07;;;;;;;54.53;38.83;;;6.00;99.90;;;;;;5106478;27;20051;-74
2022/03/21 00:19:33;;;;;;;57.80;37.90;;;6.10;99.90;;;;;;5143354;27;20059;-74
2022/03/21 00:21:59;;;;;;;54.97;36.00;;;6.20;99.90;;;;;;5143945;27;20055;-74
2022/03/21 00:24:24;;;;;;;47.73;33.03;;;6.20;99.90;;;;;;5143268;27;20050;-75
2022/03/21 00:26:52;;;;;;;52.40;33.63;;;6.30;99.90;;;;;;5120221;27;20050;-74
2022/03/21 00:29:27;;;;;;;45.63;31.33;;;6.40;99.90;;;;;;5087250;28;20043;-74
2022/03/21 00:31:57;;;;;;;41.70;30.40;;;6.40;99.90;;;;;;5134952;27;20061;-74
2022/03/21 00:34:23;;;;;;;41.73;28.17;;;6.50;99.90;;;;;;5144029;27;20039;-74
2022/03/21 00:36:48;;;;;;;43.83;30.17;;;6.50;99.90;;;;;;5144262;27;20051;-75
2022/03/21 00:39:15;;;;;;;40.33;28.43;;;6.50;99.90;;;;;;5124859;27;20115;-75
2022/03/21 00:41:41;;;;;;;40.73;28.10;;;6.50;99.90;;;;;;5143480;27;20095;-75
2022/03/21 00:44:08;;;;;;;40.40;26.00;;;6.50;99.90;;;;;;5143327;27;20524;-74
2022/03/21 00:46:34;;;;;;;40.10;26.03;;;6.50;99.90;;;;;;5123146;28;20044;-74
2022/03/21 00:49:00;;;;;;;42.20;25.60;;;6.50;99.90;;;;;;5125060;27;20051;-74
2022/03/21 00:51:25;;;;;;;36.43;23.53;;;6.60;99.90;;;;;;5138856;27;20398;-74
2022/03/21 00:53:51;;;;;;;37.03;24.93;;;6.60;99.90;;;;;;5122990;28;20493;-75
2022/03/21 00:56:17;;;;;;;31.93;22.47;;;6.60;99.90;;;;;;5124281;27;20043;-74
2022/03/21 00:58:42;;;;;;;41.03;23.50;;;6.60;99.90;;;;;;5142629;27;20047;-74
2022/03/21 01:01:10;;;;;;;39.13;22.80;;;6.60;99.90;;;;;;5142606;27;20031;-74
2022/03/21 01:03:35;;;;;;;34.80;22.40;;;6.60;99.90;;;;;;5126979;27;20073;-76
2022/03/21 01:06:01;;;;;;;34.40;22.57;;;6.60;99.90;;;;;;5134708;27;20039;-74
2022/03/21 01:08:27;;;;;;;34.57;23.17;;;6.60;99.90;;;;;;5126303;28;20118;-74
2022/03/21 01:10:53;;;;;;;32.13;21.40;;;6.60;99.90;;;;;;5121380;28;20043;-74
2022/03/21 01:13:21;;;;;;;33.83;22.67;;;6.60;99.90;;;;;;5141156;28;20061;-74
2022/03/21 01:15:47;;;;;;;30.53;21.57;;;6.60;99.90;;;;;;5124852;28;20119;-74
2022/03/21 01:18:14;;;;;;;28.83;20.40;;;6.60;99.90;;;;;;5114377;28;20046;-74
2022/03/21 01:20:43;;;;;;;33.60;20.07;;;6.60;99.90;;;;;;5137380;28;20039;-74
2022/03/21 01:23:09;;;;;;;35.20;20.70;;;6.60;99.90;;;;;;5129709;27;20493;-74
2022/03/21 01:25:34;;;;;;;30.97;20.97;;;6.60;99.90;;;;;;5141989;27;20557;-75
2022/03/21 01:28:00;;;;;;;32.77;20.73;;;6.60;99.90;;;;;;5141933;27;20077;-74
2022/03/21 01:30:26;;;;;;;29.43;20.37;;;6.60;99.90;;;;;;5121931;28;20039;-75
2022/03/21 01:32:52;;;;;;;30.87;20.63;;;6.50;99.90;;;;;;5142942;27;20062;-74
2022/03/21 01:35:21;;;;;;;27.97;18.63;;;6.60;99.90;;;;;;5098239;28;20051;-74
2022/03/21 01:37:47;;;;;;;35.60;19.80;;;6.50;99.90;;;;;;5135028;27;20043;-75
2022/03/21 01:40:14;;;;;;;30.13;20.03;;;6.40;99.90;;;;;;5091465;27;20039;-74
2022/03/21 01:42:43;;;;;;;30.87;20.17;;;6.40;99.90;;;;;;5137376;27;20103;-74
2022/03/21 01:45:10;;;;;;;29.57;19.13;;;6.40;99.90;;;;;;5110592;27;20043;-74
2022/03/21 01:47:36;;;;;;;28.63;19.27;;;6.40;99.90;;;;;;5123575;27;20047;-74
2022/03/21 01:50:02;;;;;;;28.70;18.30;;;6.40;99.90;;;;;;5106863;27;20054;-74
2022/03/21 01:52:30;;;;;;;29.37;18.50;;;6.40;99.90;;;;;;5135080;27;20524;-74
2022/03/21 01:57:42;;;;;;;26.30;17.20;;;6.30;99.90;;;;;;5145352;27;20053;-74
2022/03/21 02:00:09;;;;;;;28.60;16.80;;;6.30;99.90;;;;;;5143210;27;20149;-76
2022/03/21 02:02:41;;;;;;;24.87;16.07;;;6.30;99.90;;;;;;5132268;27;20079;-74
2022/03/21 02:05:08;;;;;;;28.23;18.07;;;6.30;99.90;;;;;;5117934;27;20054;-74
2022/03/21 02:07:35;;;;;;;30.43;17.63;;;6.20;99.90;;;;;;5134046;27;20046;-75
2022/03/21 02:10:02;;;;;;;27.63;17.33;;;6.30;99.90;;;;;;5136239;27;20039;-74
2022/03/21 02:12:29;;;;;;;27.20;17.53;;;6.20;99.90;;;;;;5143650;27;20067;-74
2022/03/21 02:14:55;;;;;;;23.30;16.43;;;6.10;99.90;;;;;;5137133;27;20043;-74
2022/03/21 02:17:24;;;;;;;25.67;17.30;;;6.00;99.90;;;;;;5118093;27;20065;-74
2022/03/21 02:19:50;;;;;;;30.67;16.80;;;6.00;99.90;;;;;;5145201;27;20035;-75
2022/03/21 02:22:27;;;;;;;27.07;17.50;;;5.90;99.90;;;;;;5118538;27;20047;-74
2022/03/21 02:25:03;;;;;;;25.67;16.80;;;5.90;99.90;;;;;;5134397;27;20615;-74
2022/03/21 02:27:33;;;;;;;31.03;17.07;;;5.80;99.90;;;;;;5137815;27;20047;-74
2022/03/21 02:30:00;;;;;;;28.70;17.60;;;5.80;99.90;;;;;;5119661;27;20043;-74
2022/03/21 02:32:27;;;;;;;23.60;16.60;;;5.60;99.90;;;;;;5125698;28;20054;-76
2022/03/21 02:34:55;;;;;;;27.73;17.83;;;5.60;99.90;;;;;;5140318;27;20058;-74
2022/03/21 02:37:22;;;;;;;28.37;17.63;;;5.50;99.90;;;;;;5146318;27;20050;-74
2022/03/21 02:39:49;;;;;;;29.70;17.57;;;5.40;99.90;;;;;;5140829;27;20046;-75
2022/03/21 02:42:15;;;;;;;27.37;16.83;;;5.40;99.90;;;;;;5111183;27;20042;-74
2022/03/21 02:44:42;;;;;;;26.80;17.17;;;5.30;99.90;;;;;;5107194;28;20097;-74
2022/03/21 02:47:09;;;;;;;25.73;16.40;;;5.30;99.90;;;;;;5126383;27;20138;-74
2022/03/21 02:49:35;;;;;;;27.50;17.70;;;5.20;99.90;;;;;;5124220;28;20075;-74
2022/03/21 02:52:04;;;;;;;28.70;17.60;;;5.10;99.90;;;;;;5124783;28;20050;-74
2022/03/21 02:54:30;;;;;;;27.10;17.93;;;5.00;99.90;;;;;;5124741;28;20371;-74
2022/03/21 02:56:57;;;;;;;27.93;17.50;;;5.00;99.90;;;;;;5134821;27;20122;-74
2022/03/21 02:59:23;;;;;;;30.37;17.73;;;5.00;99.90;;;;;;5139244;27;20062;-75
2022/03/21 03:01:53;;;;;;;27.77;17.87;;;4.90;99.90;;;;;;5145439;27;20039;-75
2022/03/21 03:04:20;;;;;;;29.13;17.30;;;4.80;99.90;;;;;;5145291;27;20046;-74
2022/03/21 03:06:45;;;;;;;28.73;18.50;;;4.80;99.90;;;;;;5144443;27;20066;-74
2022/03/21 03:09:11;;;;;;;23.93;17.47;;;4.80;99.90;;;;;;5145400;27;20039;-74
2022/03/21 03:11:37;;;;;;;27.97;17.67;;;4.80;99.90;;;;;;5124666;27;20055;-75
2022/03/21 03:14:04;;;;;;;30.23;18.30;;;4.70;99.90;;;;;;5124932;28;20509;-75
2022/03/21 03:16:29;;;;;;;29.57;17.70;;;4.70;99.90;;;;;;5115348;27;20058;-74
2022/03/21 03:18:57;;;;;;;26.07;17.43;;;4.70;99.90;;;;;;5120453;27;20047;-75
2022/03/21 03:21:25;;;;;;;29.23;17.30;;;4.60;99.90;;;;;;5121715;27;20043;-74
2022/03/21 03:23:51;;;;;;;30.20;18.77;;;4.60;99.90;;;;;;5136996;27;20035;-74
2022/03/21 03:26:17;;;;;;;24.70;16.23;;;4.60;99.90;;;;;;5106112;28;20047;-73
2022/03/21 03:28:43;;;;;;;26.00;16.20;;;4.50;99.90;;;;;;5132929;27;20042;-74
2022/03/21 03:31:09;;;;;;;24.80;16.37;;;4.40;99.90;;;;;;5133849;27;20054;-74
2022/03/21 03:33:35;;;;;;;30.17;16.27;;;4.40;99.90;;;;;;5114614;27;20043;-74
2022/03/21 03:36:03;;;;;;;31.00;17.57;;;4.30;99.90;;;;;;5128833;27;20043;-74
2022/03/21 03:38:29;;;;;;;31.67;17.70;;;4.20;99.90;;;;;;5125300;27;20101;-74
2022/03/21 03:40:56;;;;;;;33.20;17.97;;;4.10;99.90;;;;;;5126122;27;20043;-74
2022/03/21 03:43:22;;;;;;;28.40;16.87;;;4.10;99.90;;;;;;5144225;27;20046;-74
2022/03/21 03:45:52;;;;;;;34.87;18.83;;;4.10;99.90;;;;;;5126714;27;20043;-74
2022/03/21 03:48:19;;;;;;;24.73;16.13;;;4.00;99.90;;;;;;5144697;27;20062;-74
2022/03/21 03:50:45;;;;;;;32.17;17.30;;;3.90;99.90;;;;;;5115786;28;20153;-74
2022/03/21 03:53:12;;;;;;;28.93;17.07;;;3.90;99.90;;;;;;5113769;28;20088;-74
2022/03/21 03:55:38;;;;;;;28.53;17.47;;;3.80;99.90;;;;;;5131461;27;20103;-74
2022/03/21 03:58:04;;;;;;;31.37;17.60;;;3.80;99.90;;;;;;5105737;28;20469;-74
2022/03/21 04:00:30;;;;;;;29.00;17.10;;;3.70;99.90;;;;;;5129576;27;20049;-74
2022/03/21 04:05:40;;;;;;;26.70;16.00;;;3.60;99.90;;;;;;5143756;27;20367;-74
2022/03/21 04:08:07;;;;;;;26.03;14.93;;;3.60;99.90;;;;;;5143239;27;20053;-73
2022/03/21 04:10:34;;;;;;;26.73;15.80;;;3.50;99.90;;;;;;5132416;27;20031;-75
2022/03/21 04:13:00;;;;;;;27.67;15.97;;;3.40;99.90;;;;;;5140124;27;20636;-74
2022/03/21 04:15:26;;;;;;;25.70;15.63;;;3.30;99.90;;;;;;5143346;27;20307;-74
2022/03/21 04:17:53;;;;;;;21.03;13.57;;;3.30;99.90;;;;;;5143265;27;20043;-74
2022/03/21 04:20:23;;;;;;;30.90;15.60;;;3.20;99.90;;;;;;5143144;27;20043;-74
2022/03/21 04:22:48;;;;;;;23.83;14.67;;;3.10;99.90;;;;;;5123004;27;20782;-74
2022/03/21 04:25:14;;;;;;;28.73;15.57;;;3.10;99.90;;;;;;5117199;28;20304;-74
2022/03/21 04:27:41;;;;;;;40.70;12.60;;;3.00;99.90;;;;;;5122716;28;20080;-74
2022/03/21 04:30:08;;;;;;;48.53;15.93;;;2.90;99.90;;;;;;5104771;27;20119;-74
2022/03/21 04:32:35;;;;;;;26.47;15.80;;;2.90;99.90;;;;;;5137094;27;20047;-74
2022/03/21 04:35:01;;;;;;;24.80;14.83;;;2.90;99.90;;;;;;5109410;27;20044;-74
2022/03/21 04:37:27;;;;;;;33.53;17.77;;;2.80;99.90;;;;;;5142786;27;20415;-74
2022/03/21 04:39:53;;;;;;;70.90;18.37;;;2.80;99.90;;;;;;5142044;27;20307;-74
2022/03/21 04:42:19;;;;;;;24.63;15.03;;;2.70;99.90;;;;;;5142616;27;20304;-74
2022/03/21 04:44:48;;;;;;;44.70;12.77;;;2.70;99.90;;;;;;5139324;27;20050;-74
2022/03/21 04:47:14;;;;;;;249.97;8.60;;;2.60;99.90;;;;;;5130448;27;20055;-74
2022/03/21 04:49:40;;;;;;;188.80;12.10;;;2.60;99.90;;;;;;5121903;28;20366;-74
2022/03/21 04:52:06;;;;;;;25.33;12.97;;;2.60;99.90;;;;;;5125773;27;20035;-75
2022/03/21 04:54:32;;;;;;;18.30;11.47;;;2.50;99.90;;;;;;5142664;27;20039;-74
2022/03/21 04:56:58;;;;;;;19.27;12.13;;;2.50;99.90;;;;;;5139085;27;20312;-76
2022/03/21 04:59:24;;;;;;;14.90;9.63;;;2.50;99.90;;;;;;5143189;27;20072;-74
2022/03/21 05:01:51;;;;;;;24.03;13.70;;;2.40;99.90;;;;;;5143125;27;20123;-74
2022/03/21 05:04:18;;;;;;;27.07;15.80;;;2.40;99.90;;;;;;5142444;27;20035;-74
2022/03/21 05:06:44;;;;;;;26.37;14.97;;;2.30;99.90;;;;;;5138140;27;20332;-75
2022/03/21 05:09:10;;;;;;;20.60;13.23;;;2.30;99.90;;;;;;5142647;27;20300;-74
2022/03/21 05:11:36;;;;;;;21.27;13.53;;;2.30;99.90;;;;;;5135976;28;20052;-74
2022/03/21 05:14:02;;;;;;;472.53;32.03;;;2.30;99.90;;;;;;5122929;28;20288;-74
2022/03/21 05:16:28;;;;;;;26.80;16.07;;;2.20;99.90;;;;;;5121773;28;20043;-75
2022/03/21 05:18:55;;;;;;;20.23;12.30;;;2.20;99.90;;;;;;5123713;28;20659;-74
2022/03/21 05:21:21;;;;;;;600.73;27.13;;;2.20;99.90;;;;;;5142888;28;20118;-74
2022/03/21 05:32:00;;;;;;;61.70;11.10;;;2.00;99.90;;;;;;5139193;27;19919;-74
2022/03/21 05:37:11;;;;;;;26.43;11.60;;;2.00;99.90;;;;;;5109780;28;20039;-72
2022/03/21 05:40:31;;;;;;;448.93;17.00;;;2.00;99.90;;;;;;5073711;28;20300;-72
2022/03/21 05:42:23;;;;;;;76.07;14.40;;;1.90;99.90;;;;;;5108226;28;20055;-72
2022/03/21 05:44:48;;;;;;;48.50;16.93;;;2.00;99.90;;;;;;5101039;28;20381;-72
2022/03/21 05:47:14;;;;;;;136.63;15.53;;;1.90;99.90;;;;;;5091496;28;20031;-72
2022/03/21 05:49:41;;;;;;;23.20;14.03;;;1.90;99.90;;;;;;5090242;28;20496;-72
2022/03/21 05:52:07;;;;;;;22.47;13.93;;;1.90;99.90;;;;;;5081415;28;20051;-72
2022/03/21 05:54:32;;;;;;;21.13;13.00;;;1.90;99.90;;;;;;5104231;28;20311;-72
2022/03/21 05:56:58;;;;;;;20.80;12.57;;;1.90;99.90;;;;;;5084583;27;20065;-72
2022/03/21 06:02:08;;;;;;;23.48;14.25;;;1.80;99.90;;;;;;5106525;28;20504;-72
2022/03/21 06:04:34;;;;;;;23.77;14.10;;;2.00;99.90;;;;;;5105933;28;20054;-72
2022/03/21 06:07:02;;;;;;;20.10;13.13;;;1.90;99.90;;;;;;5108833;28;20063;-72
2022/03/21 06:09:27;;;;;;;22.03;14.20;;;2.00;99.90;;;;;;5107987;28;20301;-72
2022/03/21 06:11:53;;;;;;;28.60;15.90;;;1.90;99.90;;;;;;5108274;27;20811;-72
2022/03/21 06:14:20;;;;;;;23.13;14.03;;;2.00;99.90;;;;;;5105903;28;20104;-72
2022/03/21 06:16:47;;;;;;;293.87;17.20;;;2.20;99.90;;;;;;5094197;27;20499;-72
2022/03/21 06:19:13;;;;;;;56.00;14.30;;;2.30;99.90;;;;;;5111337;27;20373;-72
2022/03/21 06:21:39;;;;;;;19.27;13.10;;;2.40;99.90;;;;;;5094314;27;20293;-72
2022/03/21 06:24:08;;;;;;;22.73;14.40;;;2.60;99.90;;;;;;5087112;27;20330;-72
2022/03/21 06:26:34;;;;;;;24.63;14.97;;;2.70;99.90;;;;;;5106528;27;20408;-72
2022/03/21 06:28:59;;;;;;;30.63;16.60;;;2.90;99.90;;;;;;5106216;27;20319;-72
2022/03/21 06:31:25;;;;;;;29.67;16.60;;;3.00;99.90;;;;;;5072962;27;20489;-72
2022/03/21 06:33:51;;;;;;;26.70;16.47;;;3.20;99.90;;;;;;5096073;27;20446;-72
2022/03/21 06:36:17;;;;;;;26.70;17.43;;;3.30;99.90;;;;;;5106216;27;20054;-72
2022/03/21 06:38:43;;;;;;;26.20;17.17;;;3.50;99.90;;;;;;5106216;28;20067;-72
2022/03/21 06:41:10;;;;;;;27.23;16.67;;;3.70;99.90;;;;;;5091867;27;20101;-72
2022/03/21 06:43:36;;;;;;;24.50;16.00;;;3.70;99.90;;;;;;5092757;28;20354;-72
2022/03/21 06:46:01;;;;;;;29.07;17.53;;;3.70;99.90;;;;;;5108189;27;20330;-72
2022/03/21 06:48:30;;;;;;;26.03;15.53;;;3.70;99.90;;;;;;5096171;27;20039;-72
2022/03/21 06:50:55;;;;;;;25.43;15.40;;;3.70;99.90;;;;;;5104850;27;20080;-72
2022/03/21 06:53:22;;;;;;;22.50;15.60;;;3.70;99.90;;;;;;5088460;27;20308;-72
2022/03/21 06:55:48;;;;;;;25.03;14.37;;;3.80;99.90;;;;;;5091544;27;20445;-72
2022/03/21 06:58:15;;;;;;;24.40;15.43;;;4.00;99.90;;;;;;5086688;27;20067;-72
2022/03/21 07:00:43;;;;;;;26.17;15.57;;;4.20;99.90;;;;;;5104051;28;20047;-72
2022/03/21 07:03:08;;;;;;;32.63;17.60;;;4.40;99.90;;;;;;5104790;27;20309;-72
2022/03/21 07:05:34;;;;;;;29.40;17.10;;;4.60;99.90;;;;;;5103669;27;20054;-72
2022/03/21 07:08:00;;;;;;;28.07;18.57;;;4.90;99.90;;;;;;5092329;27;20122;-73
2022/03/21 07:10:26;;;;;;;27.57;18.23;;;5.30;99.90;;;;;;5100286;27;20039;-72
2022/03/21 07:12:52;;;;;;;27.00;17.37;;;5.90;99.90;;;;;;5100321;27;20062;-72
2022/03/21 07:15:19;;;;;;;25.70;17.10;;;6.40;99.90;;;;;;5085267;27;20039;-72
2022/03/21 07:17:45;;;;;;;26.37;17.90;;;6.60;99.90;;;;;;5103318;27;20047;-72
2022/03/21 07:20:12;;;;;;;24.47;15.80;;;7.30;99.90;;;;;;5095615;27;20049;-72
2022/03/21 07:22:38;;;;;;;24.87;15.60;;;8.10;99.90;;;;;;5090929;27;20046;-72
2022/03/21 07:25:06;;;;;;;26.40;17.10;;;8.70;99.90;;;;;;5087890;27;20063;-72
2022/03/21 07:27:32;;;;;;;26.37;17.00;;;9.00;99.90;;;;;;5086381;27;20042;-72
2022/03/21 07:29:57;;;;;;;21.40;15.47;;;9.30;99.90;;;;;;5105154;27;20046;-72
2022/03/21 07:32:24;;;;;;;21.33;15.53;;;9.80;99.90;;;;;;5092937;27;20058;-72
2022/03/21 07:34:50;;;;;;;24.73;15.57;;;10.10;99.90;;;;;;5105387;27;20051;-72
2022/03/21 07:37:16;;;;;;;22.60;15.27;;;10.00;99.90;;;;;;5076425;27;20054;-72
2022/03/21 07:39:45;;;;;;;24.60;16.83;;;9.80;99.90;;;;;;5088342;27;20411;-72
2022/03/21 07:42:15;;;;;;;25.40;16.57;;;9.40;99.90;;;;;;5092201;27;20113;-72
2022/03/21 07:47:27;;;;;;;26.53;18.20;;;9.30;99.90;;;;;;5108854;27;20039;-72
2022/03/21 07:49:55;;;;;;;27.20;16.97;;;9.40;99.90;;;;;;5106045;27;20130;-72
2022/03/21 07:52:21;;;;;;;24.60;16.77;;;9.50;99.90;;;;;;5074723;27;20062;-72
2022/03/21 07:54:51;;;;;;;23.13;16.33;;;9.50;99.90;;;;;;5089985;27;20044;-72
2022/03/21 07:57:17;;;;;;;23.87;16.33;;;9.40;99.90;;;;;;5087632;27;20432;-72
2022/03/21 07:59:43;;;;;;;25.00;16.37;;;9.20;99.90;;;;;;5101541;27;20035;-72
2022/03/21 08:02:09;;;;;;;28.33;16.63;;;9.20;99.90;;;;;;5100750;27;20062;-73
2022/03/21 08:04:36;;;;;;;26.53;16.80;;;9.20;99.90;;;;;;5104610;27;20055;-72
2022/03/21 08:07:03;;;;;;;23.00;16.90;;;9.20;99.90;;;;;;5090880;27;20051;-72
2022/03/21 08:09:29;;;;;;;26.73;18.07;;;9.20;99.90;;;;;;5090855;27;20039;-72
2022/03/21 08:11:55;;;;;;;28.63;17.90;;;9.10;99.90;;;;;;5101071;28;20447;-72
2022/03/21 08:14:21;;;;;;;29.03;18.90;;;9.00;99.90;;;;;;5099630;27;20142;-72
2022/03/21 08:16:47;;;;;;;30.73;18.43;;;9.00;99.90;;;;;;5095892;28;20039;-72
2022/03/21 08:19:12;;;;;;;25.57;17.23;;;9.00;99.90;;;;;;5093529;27;20047;-72
2022/03/21 08:21:39;;;;;;;29.03;17.97;;;9.00;99.90;;;;;;5107003;27;20043;-72
2022/03/21 08:24:06;;;;;;;27.07;18.90;;;9.10;99.90;;;;;;5098067;27;20047;-72
2022/03/21 08:26:35;;;;;;;26.17;18.57;;;9.20;99.90;;;;;;5097618;27;20111;-72
2022/03/21 08:29:01;;;;;;;25.47;15.73;;;9.50;99.90;;;;;;5104269;27;20459;-72
2022/03/21 08:31:26;;;;;;;28.50;16.70;;;9.80;99.90;;;;;;5090925;27;20130;-72
2022/03/21 08:33:52;;;;;;;25.17;15.13;;;10.20;99.90;;;;;;5105230;27;20066;-72
2022/03/21 08:36:18;;;;;;;22.90;15.57;;;10.60;99.90;;;;;;5085741;27;20074;-72
2022/03/21 08:38:45;;;;;;;23.40;15.67;;;11.10;99.90;;;;;;5092951;28;20390;-72
2022/03/21 08:41:11;;;;;;;23.50;14.93;;;11.50;99.90;;;;;;5102788;27;20439;-72
2022/03/21 08:43:37;;;;;;;21.80;14.43;;;11.70;99.90;;;;;;5091480;27;20039;-72
2022/03/21 08:46:03;;;;;;;25.33;15.47;;;11.90;99.90;;;;;;5101026;27;20182;-72
2022/03/21 08:51:13;;;;;;;22.77;14.55;;;12.40;99.90;;;;;;5104725;27;20076;-72
2022/03/21 08:53:39;;;;;;;21.00;15.13;;;12.80;99.90;;;;;;5071813;28;20060;-72
2022/03/21 08:56:06;;;;;;;22.20;14.50;;;13.10;99.90;;;;;;5101469;27;20050;-73
2022/03/21 08:58:33;;;;;;;19.47;13.97;;;13.50;99.90;;;;;;5104766;27;20043;-73
2022/03/21 09:00:58;;;;;;;24.67;14.47;;;13.50;99.90;;;;;;5100110;28;20031;-73
2022/03/21 09:03:24;;;;;;;19.97;14.40;;;13.40;99.90;;;;;;5105331;27;20039;-73
2022/03/21 09:05:50;;;;;;;23.63;15.17;;;13.50;99.90;;;;;;5089794;27;20045;-73
2022/03/21 09:08:17;;;;;;;22.63;14.93;;;13.50;99.90;;;;;;5091847;27;20051;-73
2022/03/21 09:10:43;;;;;;;22.23;15.13;;;13.60;99.90;;;;;;5105721;28;20046;-73
2022/03/21 09:13:10;;;;;;;23.23;13.87;;;13.70;99.90;;;;;;5100451;28;20059;-73
2022/03/21 09:15:35;;;;;;;21.87;13.90;;;13.80;99.90;;;;;;5087040;28;20058;-73
2022/03/21 09:18:02;;;;;;;22.37;15.37;;;13.90;99.90;;;;;;5105593;28;20043;-72
2022/03/21 09:20:29;;;;;;;21.70;14.73;;;14.10;99.90;;;;;;5098433;28;20055;-72
2022/03/21 09:22:56;;;;;;;23.07;14.73;;;14.30;99.90;;;;;;5101146;28;20039;-73
2022/03/21 09:25:22;;;;;;;20.10;14.53;;;14.50;99.90;;;;;;5088060;28;20047;-72
2022/03/21 09:27:48;;;;;;;27.33;15.30;;;14.70;99.90;;;;;;5100510;28;20047;-73
2022/03/21 09:30:16;;;;;;;18.60;13.73;;;15.20;99.90;;;;;;5099389;28;20043;-73
2022/03/21 09:32:42;;;;;;;21.40;14.23;;;16.00;99.90;;;;;;5088055;28;20051;-73
2022/03/21 09:35:08;;;;;;;19.83;14.23;;;17.00;98.30;;;;;;5071749;28;20507;-73
2022/03/21 09:37:34;;;;;;;21.33;15.40;;;17.80;96.10;;;;;;5087845;28;20497;-73
2022/03/21 09:40:00;;;;;;;20.73;14.20;;;18.70;95.30;;;;;;5089183;28;20053;-72
2022/03/21 09:42:26;;;;;;;22.17;15.13;;;19.60;92.40;;;;;;5105061;28;20059;-74
2022/03/21 09:44:55;;;;;;;21.50;16.17;;;20.20;82.40;;;;;;5098003;28;20084;-73
2022/03/21 09:50:09;;;;;;;21.17;16.17;;;20.90;73.90;;;;;;5105418;27;20124;-73
2022/03/21 09:52:35;;;;;;;23.20;16.80;;;21.20;75.00;;;;;;5074749;27;20085;-73
2022/03/21 09:55:02;;;;;;;21.20;16.67;;;21.70;73.00;;;;;;5110611;27;20043;-73
2022/03/21 09:57:28;;;;;;;26.00;17.23;;;22.20;68.60;;;;;;5100553;27;20070;-73
2022/03/21 09:59:55;;;;;;;22.97;17.00;;;22.40;68.20;;;;;;5095295;27;20489;-74
2022/03/21 10:02:22;;;;;;;24.93;16.97;;;22.80;64.80;;;;;;5103808;27;20312;-73
2022/03/21 10:04:47;;;;;;;26.53;16.77;;;23.10;64.00;;;;;;5090658;27;20139;-73
2022/03/21 10:07:15;;;;;;;25.20;17.80;;;23.10;59.20;;;;;;5087272;27;20483;-73
2022/03/21 10:09:41;;;;;;;22.73;16.83;;;23.00;59.50;;;;;;5104742;27;20043;-73
2022/03/21 10:12:10;;;;;;;24.63;17.17;;;23.40;58.60;;;;;;5092172;27;20390;-73
2022/03/21 10:14:37;;;;;;;23.80;16.47;;;23.70;55.90;;;;;;5089454;27;20040;-73
2022/03/21 10:17:05;;;;;;;24.03;18.30;;;24.10;55.30;;;;;;5088704;27;20058;-73
2022/03/21 10:19:45;;;;;;;26.03;17.07;;;24.40;54.40;;;;;;5102814;27;20042;-74
2022/03/21 10:22:12;;;;;;;20.88;16.52;;;24.70;53.20;;;;;;5109200;27;20039;-74
2022/03/21 10:24:40;;;;;;;20.13;16.98;;;25.10;50.30;;;;;;5108145;27;20049;-73
2022/03/21 10:27:06;;;;;;;21.00;17.23;;;24.90;48.90;;;;;;5099036;27;20039;-73
2022/03/21 10:29:48;;;;;;;20.65;16.17;;;24.80;50.70;;;;;;5112582;27;20581;-73
2022/03/21 10:32:30;;;;;;;21.75;16.75;;;25.10;48.50;;;;;;5109579;27;20035;-73
2022/03/21 10:35:01;;;;;;;23.58;18.33;;;25.10;46.70;;;;;;5105357;27;20035;-73
2022/03/21 10:37:40;;;;;;;24.08;17.05;;;25.20;47.80;;;;;;5111673;27;20047;-73
2022/03/21 10:40:16;;;;;;;22.73;16.73;;;25.60;47.70;;;;;;5113904;27;20538;-73
2022/03/21 10:42:56;;;;;;;22.85;16.88;;;25.90;46.20;;;;;;5089832;27;20100;-73
2022/03/21 10:45:23;;;;;;;23.13;16.83;;;25.90;44.10;;;;;;5094952;27;20054;-74
2022/03/21 10:47:50;;;;;;;24.73;18.17;;;25.00;44.20;;;;;;5110961;27;20093;-73
2022/03/21 10:50:27;;;;;;;26.10;17.40;;;24.80;45.20;;;;;;5111076;27;20477;-73
2022/03/21 10:53:03;;;;;;;22.85;17.80;;;25.10;46.20;;;;;;5106341;27;20143;-74
2022/03/21 10:55:29;;;;;;;22.60;17.17;;;25.60;44.10;;;;;;5109784;27;20036;-74
2022/03/21 10:57:55;;;;;;;23.60;17.70;;;25.40;43.50;;;;;;5106618;28;20043;-74
2022/03/21 11:00:23;;;;;;;21.88;17.73;;;25.30;42.30;;;;;;5093062;27;20036;-74
2022/03/21 11:02:54;;;;;;;25.88;17.00;;;24.90;43.10;;;;;;5106409;27;20086;-73
2022/03/21 11:05:23;;;;;;;23.60;18.23;;;24.90;43.60;;;;;;5112962;27;20061;-72
2022/03/21 11:07:49;;;;;;;22.95;17.77;;;24.60;43.40;;;;;;5108935;27;20501;-71
2022/03/21 11:10:16;;;;;;;22.98;17.60;;;24.70;45.30;;;;;;5097025;28;20116;-72
2022/03/21 11:12:42;;;;;;;21.65;17.65;;;24.80;43.60;;;;;;5086834;28;20040;-73
2022/03/21 11:15:09;;;;;;;26.67;18.23;;;24.90;43.50;;;;;;5071480;28;20040;-73
2022/03/21 11:17:36;;;;;;;23.83;17.75;;;25.00;42.80;;;;;;5068048;28;20111;-72
2022/03/21 11:20:04;;;;;;;21.55;17.00;;;25.00;44.30;;;;;;5084591;28;20031;-72
2022/03/21 11:22:33;;;;;;;23.15;17.80;;;24.70;42.30;;;;;;5084752;28;20040;-74
2022/03/21 11:25:01;;;;;;;22.33;17.80;;;24.70;43.20;;;;;;5088264;28;20040;-72
2022/03/21 11:27:50;;;;;;;24.25;17.35;;;24.70;42.20;;;;;;5071820;28;20455;-72
2022/03/21 11:30:26;;;;;;;25.67;18.17;;;24.80;43.30;;;;;;5089988;28;20319;-72
2022/03/21 11:32:59;;;;;;;22.60;17.55;;;24.90;43.00;;;;;;5082552;28;20055;-73
2022/03/21 11:35:28;;;;;;;24.73;17.35;;;24.90;41.60;;;;;;5105286;28;20045;-76
2022/03/21 11:38:15;;;;;;;23.92;16.48;;;24.70;41.70;;;;;;5071833;28;20483;-75
2022/03/21 11:40:41;;;;;;;24.58;17.75;;;24.50;42.70;;;;;;5079846;28;20093;-75
2022/03/21 11:43:25;;;;;;;24.20;18.42;;;24.80;41.80;;;;;;5091238;28;20040;-74
2022/03/21 11:45:54;;;;;;;26.20;18.10;;;24.80;42.70;;;;;;5096137;28;20040;-76
2022/03/21 11:48:36;;;;;;;25.15;18.13;;;24.80;43.10;;;;;;5100065;28;20036;-73
2022/03/21 11:51:26;;;;;;;26.50;18.08;;;24.80;43.90;;;;;;5083424;28;20040;-74
2022/03/21 11:53:54;;;;;;;25.83;17.55;;;24.40;44.80;;;;;;5073666;28;20501;-75
2022/03/21 11:57:01;;;;;;;23.55;17.83;;;24.20;43.60;;;;;;5097751;28;20054;-76
2022/03/21 11:59:50;;;;;;;25.77;18.48;;;24.20;42.80;;;;;;5082854;28;20036;-74
2022/03/21 12:02:49;;;;;;;31.77;18.08;;;24.30;44.60;;;;;;5074892;28;20044;-74
2022/03/21 12:05:36;;;;;;;30.38;18.38;;;24.10;44.00;;;;;;5077616;28;20056;-74
2022/03/21 12:08:29;;;;;;;23.38;17.65;;;24.00;44.30;;;;;;5091026;28;20040;-74
2022/03/21 12:10:56;;;;;;;24.53;17.77;;;24.10;44.50;;;;;;5091846;28;20044;-74
2022/03/21 12:13:22;;;;;;;26.58;18.63;;;24.00;45.50;;;;;;5111263;28;20290;-74
2022/03/21 12:15:53;;;;;;;28.25;18.85;;;24.00;43.60;;;;;;5113832;28;20404;-75
2022/03/21 12:18:41;;;;;;;26.35;18.77;;;23.70;43.00;;;;;;5117102;28;20053;-75
2022/03/21 12:21:12;;;;;;;25.07;19.03;;;23.70;43.80;;;;;;5111814;28;20044;-75
2022/03/21 12:23:37;;;;;;;26.70;17.93;;;23.20;43.20;;;;;;5114837;28;20047;-75
2022/03/21 12:26:04;;;;;;;26.80;19.13;;;22.80;43.10;;;;;;5110391;28;20511;-75
2022/03/21 12:31:25;;;;;;;25.33;18.83;;;22.20;47.60;;;;;;5102935;28;20057;-77
2022/03/21 12:33:52;;;;;;;28.80;18.43;;;22.10;46.00;;;;;;5086701;28;20546;-75
2022/03/21 12:36:31;;;;;;;25.87;19.07;;;21.60;44.10;;;;;;5112427;28;20051;-75
2022/03/21 12:38:57;;;;;;;30.10;18.90;;;21.20;45.10;;;;;;5102819;28;20044;-76
2022/03/21 12:41:32;;;;;;;25.20;18.73;;;20.60;44.90;;;;;;5111969;28;20103;-75
2022/03/21 12:43:58;;;;;;;25.50;19.50;;;20.40;46.10;;;;;;5107120;28;20082;-75
2022/03/21 12:46:26;;;;;;;25.53;18.47;;;20.20;46.20;;;;;;5111706;28;20040;-76
2022/03/21 12:48:57;;;;;;;29.40;19.13;;;20.10;47.60;;;;;;5104416;28;20089;-75
2022/03/21 12:51:26;;;;;;;25.20;17.03;;;20.50;48.80;;;;;;5110339;28;20040;-80
2022/03/21 12:53:56;;;;;;;26.13;17.53;;;20.80;48.80;;;;;;5104374;28;20043;-74
2022/03/21 12:56:26;;;;;;;24.37;18.77;;;20.90;48.70;;;;;;5105215;28;20066;-76
2022/03/21 12:58:57;;;;;;;32.90;19.90;;;21.00;48.10;;;;;;5099375;28;20070;-75
2022/03/21 13:01:23;;;;;;;29.73;19.50;;;20.80;46.80;;;;;;5109511;28;20075;-78
2022/03/21 13:03:57;;;;;;;29.33;19.60;;;20.70;46.90;;;;;;5078888;28;20044;-76
2022/03/21 13:11:57;;;;;;;25.57;18.13;;;20.20;47.00;;;;;;5120917;27;20054;-77
2022/03/21 13:14:23;;;;;;;23.47;18.90;;;20.30;48.20;;;;;;5108691;28;20043;-74